sensor_id;sensor_type;location;lat;lon;timestamp;pressure;altitude;pressure_sealevel;temperature;humidity
56330;BME280;42236;48.058;10.632;2023-10-08T00:00:52;95639.94;;;15.55;46.85
56330;BME280;42236;48.058;10.632;2023-10-08T00:03:42;95636.13;;;15.56;47.05
56330;BME280;42236;48.058;10.632;2023-10-08T00:06:34;95643.81;;;15.54;46.94
56330;BME280;42236;48.058;10.632;2023-10-08T00:09:20;95641.44;;;15.52;46.89
56330;BME280;42236;48.058;10.632;2023-10-08T00:12:06;95635.91;;;15.49;47.08
56330;BME280;42236;48.058;10.632;2023-10-08T00:14:53;95638.19;;;15.47;46.92
56330;BME280;42236;48.058;10.632;2023-10-08T00:17:40;95640.53;;;15.48;46.68
56330;BME280;42236;48.058;10.632;2023-10-08T00:20:26;95639.06;;;15.51;46.58
56330;BME280;42236;48.058;10.632;2023-10-08T00:23:21;95639.94;;;15.55;46.17
56330;BME280;42236;48.058;10.632;2023-10-08T00:26:08;95647.00;;;15.56;46.42
56330;BME280;42236;48.058;10.632;2023-10-08T00:29:01;95637.22;;;15.55;46.40
56330;BME280;42236;48.058;10.632;2023-10-08T00:31:52;95639.06;;;15.51;46.38
56330;BME280;42236;48.058;10.632;2023-10-08T00:34:39;95643.72;;;15.50;46.84
56330;BME280;42236;48.058;10.632;2023-10-08T00:37:27;95636.59;;;15.46;46.59
56330;BME280;42236;48.058;10.632;2023-10-08T00:40:14;95633.78;;;15.42;46.64
56330;BME280;42236;48.058;10.632;2023-10-08T00:43:06;95630.16;;;15.38;47.17
56330;BME280;42236;48.058;10.632;2023-10-08T00:45:55;95625.06;;;15.36;46.75
56330;BME280;42236;48.058;10.632;2023-10-08T00:48:46;95626.22;;;15.35;47.02
56330;BME280;42236;48.058;10.632;2023-10-08T00:51:31;95623.06;;;15.33;46.92
56330;BME280;42236;48.058;10.632;2023-10-08T00:54:26;95611.47;;;15.36;47.25
56330;BME280;42236;48.058;10.632;2023-10-08T00:57:15;95612.63;;;15.35;46.74
56330;BME280;42236;48.058;10.632;2023-10-08T01:00:06;95610.34;;;15.38;46.85
56330;BME280;42236;48.058;10.632;2023-10-08T01:02:58;95610.00;;;15.39;47.05
56330;BME280;42236;48.058;10.632;2023-10-08T01:05:47;95603.44;;;15.40;46.78
56330;BME280;42236;48.058;10.632;2023-10-08T01:08:33;95595.34;;;15.44;46.64
56330;BME280;42236;48.058;10.632;2023-10-08T01:11:23;95599.66;;;15.45;46.93
56330;BME280;42236;48.058;10.632;2023-10-08T01:14:42;95589.03;;;15.40;46.75
56330;BME280;42236;48.058;10.632;2023-10-08T01:17:28;95586.66;;;15.38;47.18
56330;BME280;42236;48.058;10.632;2023-10-08T01:20:18;95576.84;;;15.33;46.98
56330;BME280;42236;48.058;10.632;2023-10-08T01:23:29;95582.97;;;15.30;47.04
56330;BME280;42236;48.058;10.632;2023-10-08T01:26:20;95578.66;;;15.29;46.33
56330;BME280;42236;48.058;10.632;2023-10-08T01:29:09;95587.97;;;15.28;47.04
56330;BME280;42236;48.058;10.632;2023-10-08T01:31:55;95582.44;;;15.25;47.14
56330;BME280;42236;48.058;10.632;2023-10-08T01:34:43;95583.94;;;15.22;47.09
56330;BME280;42236;48.058;10.632;2023-10-08T01:37:32;95571.44;;;15.21;47.17
56330;BME280;42236;48.058;10.632;2023-10-08T01:40:19;95575.31;;;15.20;47.02
56330;BME280;42236;48.058;10.632;2023-10-08T01:43:05;95577.22;;;15.20;47.35
56330;BME280;42236;48.058;10.632;2023-10-08T01:45:51;95573.72;;;15.19;47.43
56330;BME280;42236;48.058;10.632;2023-10-08T01:48:38;95568.66;;;15.18;47.23
56330;BME280;42236;48.058;10.632;2023-10-08T01:51:24;95566.72;;;15.18;47.40
56330;BME280;42236;48.058;10.632;2023-10-08T01:54:11;95560.91;;;15.20;47.16
56330;BME280;42236;48.058;10.632;2023-10-08T01:56:56;95554.34;;;15.21;47.28
56330;BME280;42236;48.058;10.632;2023-10-08T01:59:42;95552.88;;;15.23;47.45
56330;BME280;42236;48.058;10.632;2023-10-08T02:02:29;95552.09;;;15.23;47.55
56330;BME280;42236;48.058;10.632;2023-10-08T02:05:15;95547.53;;;15.27;47.39
56330;BME280;42236;48.058;10.632;2023-10-08T02:08:01;95547.19;;;15.28;47.21
56330;BME280;42236;48.058;10.632;2023-10-08T02:10:48;95548.06;;;15.32;47.02
56330;BME280;42236;48.058;10.632;2023-10-08T02:13:34;95552.34;;;15.33;47.21
56330;BME280;42236;48.058;10.632;2023-10-08T02:16:20;95540.38;;;15.34;47.10
56330;BME280;42236;48.058;10.632;2023-10-08T02:19:07;95543.88;;;15.35;47.20
56330;BME280;42236;48.058;10.632;2023-10-08T02:21:56;95539.91;;;15.32;47.09
56330;BME280;42236;48.058;10.632;2023-10-08T02:24:43;95537.19;;;15.32;46.74
56330;BME280;42236;48.058;10.632;2023-10-08T02:27:28;95539.91;;;15.32;46.73
56330;BME280;42236;48.058;10.632;2023-10-08T02:30:14;95543.75;;;15.31;46.84
56330;BME280;42236;48.058;10.632;2023-10-08T02:33:00;95532.88;;;15.31;46.63
56330;BME280;42236;48.058;10.632;2023-10-08T02:35:47;95539.91;;;15.32;46.81
56330;BME280;42236;48.058;10.632;2023-10-08T02:38:32;95537.66;;;15.34;46.58
56330;BME280;42236;48.058;10.632;2023-10-08T02:41:23;95544.66;;;15.35;46.20
56330;BME280;42236;48.058;10.632;2023-10-08T02:44:10;95539.66;;;15.38;46.19
56330;BME280;42236;48.058;10.632;2023-10-08T02:46:59;95541.34;;;15.42;45.85
56330;BME280;42236;48.058;10.632;2023-10-08T02:49:44;95546.50;;;15.47;46.18
56330;BME280;42236;48.058;10.632;2023-10-08T02:52:30;95544.13;;;15.46;45.87
56330;BME280;42236;48.058;10.632;2023-10-08T02:55:19;95542.91;;;15.43;45.40
56330;BME280;42236;48.058;10.632;2023-10-08T02:58:19;95537.84;;;15.42;46.14
56330;BME280;42236;48.058;10.632;2023-10-08T03:01:07;95529.22;;;15.40;46.29
56330;BME280;42236;48.058;10.632;2023-10-08T03:03:52;95532.28;;;15.38;46.33
56330;BME280;42236;48.058;10.632;2023-10-08T03:06:49;95522.91;;;15.35;45.95
56330;BME280;42236;48.058;10.632;2023-10-08T03:09:38;95526.06;;;15.38;45.82
56330;BME280;42236;48.058;10.632;2023-10-08T03:12:27;95526.06;;;15.38;45.71
56330;BME280;42236;48.058;10.632;2023-10-08T03:15:17;95522.31;;;15.42;45.43
56330;BME280;42236;48.058;10.632;2023-10-08T03:18:14;95519.59;;;15.42;45.73
56330;BME280;42236;48.058;10.632;2023-10-08T03:21:00;95523.88;;;15.43;45.75
56330;BME280;42236;48.058;10.632;2023-10-08T03:23:49;95521.16;;;15.43;45.90
56330;BME280;42236;48.058;10.632;2023-10-08T03:26:36;95520.38;;;15.43;45.86
56330;BME280;42236;48.058;10.632;2023-10-08T03:29:23;95521.53;;;15.42;45.70
56330;BME280;42236;48.058;10.632;2023-10-08T03:32:15;95520.03;;;15.44;45.50
56330;BME280;42236;48.058;10.632;2023-10-08T03:35:01;95518.44;;;15.43;45.55
56330;BME280;42236;48.058;10.632;2023-10-08T03:37:49;95517.66;;;15.43;45.66
56330;BME280;42236;48.058;10.632;2023-10-08T03:40:36;95509.03;;;15.41;45.50
56330;BME280;42236;48.058;10.632;2023-10-08T03:43:28;95511.31;;;15.39;45.80
56330;BME280;42236;48.058;10.632;2023-10-08T03:46:20;95512.03;;;15.35;45.74
56330;BME280;42236;48.058;10.632;2023-10-08T03:49:09;95513.97;;;15.35;45.75
56330;BME280;42236;48.058;10.632;2023-10-08T03:52:10;95509.75;;;15.38;45.33
56330;BME280;42236;48.058;10.632;2023-10-08T03:54:56;95509.16;;;15.44;45.25
56330;BME280;42236;48.058;10.632;2023-10-08T03:58:07;95505.47;;;15.52;44.97
56330;BME280;42236;48.058;10.632;2023-10-08T04:00:56;95509.91;;;15.61;44.82
56330;BME280;42236;48.058;10.632;2023-10-08T04:03:54;95515.03;;;15.62;44.74
56330;BME280;42236;48.058;10.632;2023-10-08T04:06:42;95511.84;;;15.60;44.82
56330;BME280;42236;48.058;10.632;2023-10-08T04:09:34;95519.56;;;15.58;44.95
56330;BME280;42236;48.058;10.632;2023-10-08T04:12:20;95523.72;;;15.52;45.13
56330;BME280;42236;48.058;10.632;2023-10-08T04:15:06;95506.78;;;15.43;45.29
56330;BME280;42236;48.058;10.632;2023-10-08T04:17:55;95517.47;;;15.35;45.91
56330;BME280;42236;48.058;10.632;2023-10-08T04:20:42;95519.28;;;15.31;46.12
56330;BME280;42236;48.058;10.632;2023-10-08T04:23:47;95517.19;;;15.25;46.23
56330;BME280;42236;48.058;10.632;2023-10-08T04:26:37;95513.59;;;15.21;46.25
56330;BME280;42236;48.058;10.632;2023-10-08T04:29:26;95511.13;;;15.15;46.55
56330;BME280;42236;48.058;10.632;2023-10-08T04:32:17;95513.75;;;15.12;46.48
56330;BME280;42236;48.058;10.632;2023-10-08T04:35:10;95509.78;;;15.09;46.56
56330;BME280;42236;48.058;10.632;2023-10-08T04:38:00;95511.28;;;15.07;47.11
56330;BME280;42236;48.058;10.632;2023-10-08T04:40:46;95509.78;;;15.09;47.05
56330;BME280;42236;48.058;10.632;2023-10-08T04:43:36;95509.44;;;15.11;46.95
56330;BME280;42236;48.058;10.632;2023-10-08T04:46:23;95504.53;;;15.17;46.35
56330;BME280;42236;48.058;10.632;2023-10-08T04:49:24;95500.06;;;15.24;46.54
56330;BME280;42236;48.058;10.632;2023-10-08T04:52:15;95509.66;;;15.34;45.92
56330;BME280;42236;48.058;10.632;2023-10-08T04:55:01;95504.06;;;15.43;45.80
56330;BME280;42236;48.058;10.632;2023-10-08T04:57:58;95502.66;;;15.49;45.69
56330;BME280;42236;48.058;10.632;2023-10-08T05:00:45;95508.63;;;15.54;45.65
56330;BME280;42236;48.058;10.632;2023-10-08T05:03:49;95500.13;;;15.56;45.59
56330;BME280;42236;48.058;10.632;2023-10-08T05:06:41;95500.63;;;15.62;45.73
56330;BME280;42236;48.058;10.632;2023-10-08T05:09:32;95503.44;;;15.65;45.44
56330;BME280;42236;48.058;10.632;2023-10-08T05:12:31;95501.59;;;15.69;45.26
56330;BME280;42236;48.058;10.632;2023-10-08T05:15:22;95506.78;;;15.74;45.61
56330;BME280;42236;48.058;10.632;2023-10-08T05:18:18;95501.34;;;15.74;45.46
56330;BME280;42236;48.058;10.632;2023-10-08T05:21:04;95506.78;;;15.74;45.54
56330;BME280;42236;48.058;10.632;2023-10-08T05:24:09;95507.50;;;15.71;45.54
56330;BME280;42236;48.058;10.632;2023-10-08T05:26:58;95497.31;;;15.68;45.38
56330;BME280;42236;48.058;10.632;2023-10-08T05:30:07;95496.50;;;15.68;45.63
56330;BME280;42236;48.058;10.632;2023-10-08T05:33:02;95496.44;;;15.64;45.83
56330;BME280;42236;48.058;10.632;2023-10-08T05:35:48;95493.25;;;15.62;45.79
56330;BME280;42236;48.058;10.632;2023-10-08T05:38:35;95494.81;;;15.63;45.90
56330;BME280;42236;48.058;10.632;2023-10-08T05:41:20;95492.09;;;15.63;45.92
56330;BME280;42236;48.058;10.632;2023-10-08T05:44:36;95494.81;;;15.63;46.30
56330;BME280;42236;48.058;10.632;2023-10-08T05:47:25;95509.50;;;15.58;46.44
56330;BME280;42236;48.058;10.632;2023-10-08T05:50:19;95521.97;;;15.60;46.21
56330;BME280;42236;48.058;10.632;2023-10-08T05:53:05;95521.44;;;15.70;46.38
56330;BME280;42236;48.058;10.632;2023-10-08T05:56:05;95531.28;;;15.58;46.75
56330;BME280;42236;48.058;10.632;2023-10-08T05:59:02;95535.53;;;15.44;47.47
56330;BME280;42236;48.058;10.632;2023-10-08T06:02:03;95533.69;;;15.32;47.99
56330;BME280;42236;48.058;10.632;2023-10-08T06:05:10;95541.28;;;15.26;48.25
56330;BME280;42236;48.058;10.632;2023-10-08T06:07:58;95549.38;;;15.23;48.93
56330;BME280;42236;48.058;10.632;2023-10-08T06:10:56;95555.16;;;15.21;48.54
56330;BME280;42236;48.058;10.632;2023-10-08T06:13:43;95552.88;;;15.23;49.15
56330;BME280;42236;48.058;10.632;2023-10-08T06:16:30;95563.75;;;15.23;49.08
56330;BME280;42236;48.058;10.632;2023-10-08T06:19:26;95563.41;;;15.25;49.44
56330;BME280;42236;48.058;10.632;2023-10-08T06:22:12;95572.81;;;15.27;49.65
56330;BME280;42236;48.058;10.632;2023-10-08T06:24:58;95576.38;;;15.31;49.47
56330;BME280;42236;48.058;10.632;2023-10-08T06:28:02;95582.25;;;15.33;50.08
56330;BME280;42236;48.058;10.632;2023-10-08T06:30:50;95587.00;;;15.36;50.46
56330;BME280;42236;48.058;10.632;2023-10-08T06:33:39;95589.72;;;15.36;50.37
56330;BME280;42236;48.058;10.632;2023-10-08T06:36:26;95600.38;;;15.42;50.68
56330;BME280;42236;48.058;10.632;2023-10-08T06:39:13;95606.22;;;15.44;50.89
56330;BME280;42236;48.058;10.632;2023-10-08T06:42:04;95606.34;;;15.47;50.87
56330;BME280;42236;48.058;10.632;2023-10-08T06:44:50;95616.19;;;15.52;50.93
56330;BME280;42236;48.058;10.632;2023-10-08T06:47:38;95617.94;;;15.60;50.93
56330;BME280;42236;48.058;10.632;2023-10-08T06:50:24;95619.94;;;15.63;51.08
56330;BME280;42236;48.058;10.632;2023-10-08T06:53:09;95608.41;;;15.66;50.84
56330;BME280;42236;48.058;10.632;2023-10-08T06:55:55;95614.72;;;15.70;51.19
56330;BME280;42236;48.058;10.632;2023-10-08T06:58:42;95615.53;;;15.71;51.76
56330;BME280;42236;48.058;10.632;2023-10-08T07:01:34;95621.06;;;15.74;51.75
56330;BME280;42236;48.058;10.632;2023-10-08T07:04:26;95617.28;;;15.79;52.09
56330;BME280;42236;48.058;10.632;2023-10-08T07:07:12;95625.66;;;15.86;52.37
56330;BME280;42236;48.058;10.632;2023-10-08T07:10:04;95629.34;;;15.94;52.82
56330;BME280;42236;48.058;10.632;2023-10-08T07:12:50;95623.28;;;16.00;52.86
56330;BME280;42236;48.058;10.632;2023-10-08T07:15:38;95623.91;;;16.10;52.95
56330;BME280;42236;48.058;10.632;2023-10-08T07:18:23;95619.88;;;16.19;53.17
56330;BME280;42236;48.058;10.632;2023-10-08T07:21:12;95620.88;;;16.31;53.35
56330;BME280;42236;48.058;10.632;2023-10-08T07:23:58;95629.00;;;16.43;53.69
56330;BME280;42236;48.058;10.632;2023-10-08T07:26:46;95623.06;;;16.57;52.77
56330;BME280;42236;48.058;10.632;2023-10-08T07:29:32;95621.03;;;16.70;52.69
56330;BME280;42236;48.058;10.632;2023-10-08T07:32:18;95608.09;;;16.82;52.15
56330;BME280;42236;48.058;10.632;2023-10-08T07:35:07;95618.53;;;16.96;50.98
56330;BME280;42236;48.058;10.632;2023-10-08T07:38:21;95611.78;;;17.10;50.59
56330;BME280;42236;48.058;10.632;2023-10-08T07:41:11;95600.38;;;17.23;50.29
56330;BME280;42236;48.058;10.632;2023-10-08T07:44:00;95608.41;;;17.36;50.39
56330;BME280;42236;48.058;10.632;2023-10-08T07:46:45;95606.25;;;17.45;49.75
56330;BME280;42236;48.058;10.632;2023-10-08T07:49:31;95607.16;;;17.53;50.04
56330;BME280;42236;48.058;10.632;2023-10-08T07:52:17;95608.88;;;17.61;49.64
56330;BME280;42236;48.058;10.632;2023-10-08T07:55:03;95596.50;;;17.67;49.56
56330;BME280;42236;48.058;10.632;2023-10-08T07:57:51;95599.38;;;17.74;49.64
56330;BME280;42236;48.058;10.632;2023-10-08T08:00:37;95593.28;;;17.81;50.07
56330;BME280;42236;48.058;10.632;2023-10-08T08:03:24;95591.47;;;17.88;49.25
56330;BME280;42236;48.058;10.632;2023-10-08T08:06:11;95600.22;;;17.98;49.27
56330;BME280;42236;48.058;10.632;2023-10-08T08:08:58;95600.72;;;18.07;49.10
56330;BME280;42236;48.058;10.632;2023-10-08T08:11:44;95611.34;;;18.12;48.73
56330;BME280;42236;48.058;10.632;2023-10-08T08:14:33;95607.59;;;18.20;48.65
56330;BME280;42236;48.058;10.632;2023-10-08T08:17:19;95616.34;;;18.29;48.98
56330;BME280;42236;48.058;10.632;2023-10-08T08:20:05;95614.06;;;18.35;48.49
56330;BME280;42236;48.058;10.632;2023-10-08T08:23:03;95602.47;;;18.42;48.65
56330;BME280;42236;48.058;10.632;2023-10-08T08:25:52;95612.75;;;18.52;47.95
56330;BME280;42236;48.058;10.632;2023-10-08T08:29:01;95608.25;;;18.63;48.02
56330;BME280;42236;48.058;10.632;2023-10-08T08:31:47;95611.50;;;18.72;47.88
56330;BME280;42236;48.058;10.632;2023-10-08T08:34:32;95611.63;;;18.80;48.15
56330;BME280;42236;48.058;10.632;2023-10-08T08:37:18;95611.31;;;18.85;47.79
56330;BME280;42236;48.058;10.632;2023-10-08T08:40:05;95619.53;;;18.85;47.83
56330;BME280;42236;48.058;10.632;2023-10-08T08:42:54;95623.81;;;18.86;47.92
56330;BME280;42236;48.058;10.632;2023-10-08T08:45:44;95621.88;;;18.86;48.01
56330;BME280;42236;48.058;10.632;2023-10-08T08:48:32;95630.50;;;18.88;48.17
56330;BME280;42236;48.058;10.632;2023-10-08T08:51:19;95627.41;;;18.90;47.95
56330;BME280;42236;48.058;10.632;2023-10-08T08:54:06;95634.09;;;18.92;48.07
56330;BME280;42236;48.058;10.632;2023-10-08T08:56:52;95630.19;;;18.93;47.50
56330;BME280;42236;48.058;10.632;2023-10-08T08:59:42;95635.72;;;18.97;48.22
56330;BME280;42236;48.058;10.632;2023-10-08T09:02:29;95627.91;;;18.99;47.99
56330;BME280;42236;48.058;10.632;2023-10-08T09:05:17;95626.75;;;19.00;48.02
56330;BME280;42236;48.058;10.632;2023-10-08T09:08:18;95626.78;;;19.04;47.85
56330;BME280;42236;48.058;10.632;2023-10-08T09:11:04;95622.53;;;19.06;48.17
56330;BME280;42236;48.058;10.632;2023-10-08T09:13:50;95626.88;;;19.11;48.10
56330;BME280;42236;48.058;10.632;2023-10-08T09:16:37;95626.97;;;19.18;48.46
56330;BME280;42236;48.058;10.632;2023-10-08T09:19:24;95629.78;;;19.22;47.84
56330;BME280;42236;48.058;10.632;2023-10-08T09:22:11;95629.03;;;19.25;48.08
56330;BME280;42236;48.058;10.632;2023-10-08T09:24:57;95634.91;;;19.27;48.37
56330;BME280;42236;48.058;10.632;2023-10-08T09:27:50;95632.59;;;19.29;47.18
56330;BME280;42236;48.058;10.632;2023-10-08T09:30:41;95635.84;;;19.38;47.88
56330;BME280;42236;48.058;10.632;2023-10-08T09:33:28;95643.38;;;19.48;47.51
56330;BME280;42236;48.058;10.632;2023-10-08T09:36:13;95639.97;;;19.58;48.01
56330;BME280;42236;48.058;10.632;2023-10-08T09:39:03;95647.84;;;19.64;47.69
56330;BME280;42236;48.058;10.632;2023-10-08T09:41:53;95644.03;;;19.68;47.25
56330;BME280;42236;48.058;10.632;2023-10-08T09:44:39;95638.59;;;19.72;47.52
56330;BME280;42236;48.058;10.632;2023-10-08T09:47:25;95647.72;;;19.83;47.29
56330;BME280;42236;48.058;10.632;2023-10-08T09:50:14;95649.75;;;19.90;47.25
56330;BME280;42236;48.058;10.632;2023-10-08T09:53:07;95659.22;;;19.99;46.62
56330;BME280;42236;48.058;10.632;2023-10-08T09:55:57;95662.41;;;20.05;47.21
56330;BME280;42236;48.058;10.632;2023-10-08T09:58:43;95657.38;;;20.11;46.74
56330;BME280;42236;48.058;10.632;2023-10-08T10:01:30;95656.28;;;20.19;47.33
56330;BME280;42236;48.058;10.632;2023-10-08T10:04:23;95665.75;;;20.25;46.72
56330;BME280;42236;48.058;10.632;2023-10-08T10:07:17;95666.53;;;20.29;46.79
56330;BME280;42236;48.058;10.632;2023-10-08T10:10:08;95664.69;;;20.40;47.26
56330;BME280;42236;48.058;10.632;2023-10-08T10:13:11;95673.75;;;20.44;46.76
56330;BME280;42236;48.058;10.632;2023-10-08T10:15:58;95678.09;;;20.49;46.84
56330;BME280;42236;48.058;10.632;2023-10-08T10:18:44;95680.47;;;20.54;46.69
56330;BME280;42236;48.058;10.632;2023-10-08T10:21:33;95676.69;;;20.66;46.47
56330;BME280;42236;48.058;10.632;2023-10-08T10:24:32;95675.63;;;20.81;45.61
56330;BME280;42236;48.058;10.632;2023-10-08T10:27:19;95686.69;;;20.96;46.15
56330;BME280;42236;48.058;10.632;2023-10-08T10:30:05;95689.91;;;21.05;46.30
56330;BME280;42236;48.058;10.632;2023-10-08T10:32:54;95689.94;;;21.12;45.73
56330;BME280;42236;48.058;10.632;2023-10-08T10:35:40;95690.34;;;21.18;45.66
56330;BME280;42236;48.058;10.632;2023-10-08T10:38:29;95687.63;;;21.21;45.69
56330;BME280;42236;48.058;10.632;2023-10-08T10:41:15;95685.28;;;21.20;45.19
56330;BME280;42236;48.058;10.632;2023-10-08T10:44:03;95689.97;;;21.19;45.08
56330;BME280;42236;48.058;10.632;2023-10-08T10:46:53;95703.34;;;21.24;45.07
56330;BME280;42236;48.058;10.632;2023-10-08T10:49:57;95696.25;;;21.20;45.28
56330;BME280;42236;48.058;10.632;2023-10-08T10:52:46;95698.59;;;21.18;44.99
56330;BME280;42236;48.058;10.632;2023-10-08T10:55:39;95690.00;;;21.23;45.44
56330;BME280;42236;48.058;10.632;2023-10-08T10:58:33;95686.88;;;21.28;45.39
56330;BME280;42236;48.058;10.632;2023-10-08T11:01:27;95687.66;;;21.28;45.41
56330;BME280;42236;48.058;10.632;2023-10-08T11:04:15;95690.41;;;21.25;45.68
56330;BME280;42236;48.058;10.632;2023-10-08T11:07:05;95691.53;;;21.20;45.76
56330;BME280;42236;48.058;10.632;2023-10-08T11:09:52;95686.06;;;21.20;46.12
56330;BME280;42236;48.058;10.632;2023-10-08T11:12:40;95670.38;;;21.17;46.25
56330;BME280;42236;48.058;10.632;2023-10-08T11:15:32;95687.19;;;21.12;46.43
56330;BME280;42236;48.058;10.632;2023-10-08T11:18:26;95680.88;;;21.08;46.11
56330;BME280;42236;48.058;10.632;2023-10-08T11:21:16;95677.31;;;21.04;46.48
56330;BME280;42236;48.058;10.632;2023-10-08T11:24:02;95676.50;;;20.96;46.78
56330;BME280;42236;48.058;10.632;2023-10-08T11:26:54;95671.00;;;20.93;46.91
56330;BME280;42236;48.058;10.632;2023-10-08T11:29:52;95671.72;;;20.86;47.04
56330;BME280;42236;48.058;10.632;2023-10-08T11:32:42;95667.75;;;20.80;47.00
56330;BME280;42236;48.058;10.632;2023-10-08T11:35:33;95667.75;;;20.76;47.39
56330;BME280;42236;48.058;10.632;2023-10-08T11:38:19;95675.56;;;20.74;47.46
56330;BME280;42236;48.058;10.632;2023-10-08T11:41:12;95660.63;;;20.68;47.27
56330;BME280;42236;48.058;10.632;2023-10-08T11:44:06;95670.00;;;20.63;47.73
56330;BME280;42236;48.058;10.632;2023-10-08T11:46:51;95679.75;;;20.61;47.64
56330;BME280;42236;48.058;10.632;2023-10-08T11:49:38;95675.47;;;20.60;47.95
56330;BME280;42236;48.058;10.632;2023-10-08T11:52:32;95672.31;;;20.58;48.18
56330;BME280;42236;48.058;10.632;2023-10-08T11:55:18;95675.47;;;20.60;48.42
56330;BME280;42236;48.058;10.632;2023-10-08T11:58:06;95673.13;;;20.62;48.51
56330;BME280;42236;48.058;10.632;2023-10-08T12:01:02;95672.41;;;20.69;48.70
56330;BME280;42236;48.058;10.632;2023-10-08T12:03:49;95682.63;;;20.75;48.70
56330;BME280;42236;48.058;10.632;2023-10-08T12:06:35;95688.09;;;20.75;48.95
56330;BME280;42236;48.058;10.632;2023-10-08T12:09:22;95689.22;;;20.71;49.21
56330;BME280;42236;48.058;10.632;2023-10-08T12:12:12;95682.19;;;20.66;49.19
56330;BME280;42236;48.058;10.632;2023-10-08T12:14:59;95676.72;;;20.70;49.48
56330;BME280;42236;48.058;10.632;2023-10-08T12:17:49;95671.63;;;20.72;49.55
56330;BME280;42236;48.058;10.632;2023-10-08T12:20:53;95670.50;;;20.76;49.85
56330;BME280;42236;48.058;10.632;2023-10-08T12:23:39;95668.56;;;20.80;49.81
56330;BME280;42236;48.058;10.632;2023-10-08T12:26:26;95666.22;;;20.82;49.61
56330;BME280;42236;48.058;10.632;2023-10-08T12:29:12;95660.75;;;20.86;49.15
56330;BME280;42236;48.058;10.632;2023-10-08T12:31:59;95667.03;;;20.86;49.34
56330;BME280;42236;48.058;10.632;2023-10-08T12:34:45;95664.28;;;20.86;49.55
56330;BME280;42236;48.058;10.632;2023-10-08T12:37:33;95664.69;;;20.88;49.49
56330;BME280;42236;48.058;10.632;2023-10-08T12:40:21;95656.88;;;20.91;50.09
56330;BME280;42236;48.058;10.632;2023-10-08T12:43:08;95665.13;;;20.94;50.36
56330;BME280;42236;48.058;10.632;2023-10-08T12:45:54;95664.72;;;20.92;50.22
56330;BME280;42236;48.058;10.632;2023-10-08T12:48:41;95661.19;;;20.88;49.50
56330;BME280;42236;48.058;10.632;2023-10-08T12:51:30;95666.25;;;20.86;49.98
56330;BME280;42236;48.058;10.632;2023-10-08T12:54:18;95661.91;;;20.81;49.97
56330;BME280;42236;48.058;10.632;2023-10-08T12:57:07;95664.59;;;20.78;49.78
56330;BME280;42236;48.058;10.632;2023-10-08T12:59:54;95653.63;;;20.74;50.15
56330;BME280;42236;48.058;10.632;2023-10-08T13:02:42;95654.41;;;20.71;50.29
56330;BME280;42236;48.058;10.632;2023-10-08T13:05:28;95651.63;;;20.67;49.80
56330;BME280;42236;48.058;10.632;2023-10-08T13:08:14;95652.41;;;20.68;50.20
56330;BME280;42236;48.058;10.632;2023-10-08T13:11:00;95651.25;;;20.69;50.05
56330;BME280;42236;48.058;10.632;2023-10-08T13:13:53;95648.16;;;20.74;50.36
56330;BME280;42236;48.058;10.632;2023-10-08T13:16:41;95648.56;;;20.76;50.25
56330;BME280;42236;48.058;10.632;2023-10-08T13:19:30;95655.97;;;20.72;50.47
56330;BME280;42236;48.058;10.632;2023-10-08T13:22:19;95650.00;;;20.63;50.38
56330;BME280;42236;48.058;10.632;2023-10-08T13:25:06;95650.38;;;20.58;50.32
56330;BME280;42236;48.058;10.632;2023-10-08T13:27:52;95643.66;;;20.52;49.94
56330;BME280;42236;48.058;10.632;2023-10-08T13:30:38;95638.53;;;20.46;50.35
56330;BME280;42236;48.058;10.632;2023-10-08T13:33:23;95642.41;;;20.42;50.18
56330;BME280;42236;48.058;10.632;2023-10-08T13:36:10;95645.88;;;20.39;50.37
56330;BME280;42236;48.058;10.632;2023-10-08T13:38:57;95641.94;;;20.36;50.15
56330;BME280;42236;48.058;10.632;2023-10-08T13:41:42;95635.25;;;20.30;50.38
56330;BME280;42236;48.058;10.632;2023-10-08T13:44:31;95624.25;;;20.27;50.40
56330;BME280;42236;48.058;10.632;2023-10-08T13:47:17;95620.31;;;20.24;50.35
56330;BME280;42236;48.058;10.632;2023-10-08T13:50:03;95630.84;;;20.22;50.31
56330;BME280;42236;48.058;10.632;2023-10-08T13:52:55;95626.97;;;20.23;50.20
56330;BME280;42236;48.058;10.632;2023-10-08T13:55:41;95615.59;;;20.21;50.21
56330;BME280;42236;48.058;10.632;2023-10-08T13:58:31;95616.38;;;20.21;49.94
56330;BME280;42236;48.058;10.632;2023-10-08T14:01:19;95606.59;;;20.24;50.55
56330;BME280;42236;48.058;10.632;2023-10-08T14:04:05;95605.81;;;20.23;50.91
56330;BME280;42236;48.058;10.632;2023-10-08T14:06:51;95597.59;;;20.23;51.05
56330;BME280;42236;48.058;10.632;2023-10-08T14:09:38;95594.88;;;20.27;51.00
56330;BME280;42236;48.058;10.632;2023-10-08T14:12:23;95588.25;;;20.28;51.40
56330;BME280;42236;48.058;10.632;2023-10-08T14:15:09;95587.06;;;20.29;51.34
56330;BME280;42236;48.058;10.632;2023-10-08T14:18:00;95578.84;;;20.29;51.15
56330;BME280;42236;48.058;10.632;2023-10-08T14:20:50;95582.34;;;20.26;51.29
56330;BME280;42236;48.058;10.632;2023-10-08T14:23:39;95568.25;;;20.24;51.57
56330;BME280;42236;48.058;10.632;2023-10-08T14:26:25;95569.78;;;20.18;51.75
56330;BME280;42236;48.058;10.632;2023-10-08T14:29:10;95573.25;;;20.15;51.86
56330;BME280;42236;48.058;10.632;2023-10-08T14:32:00;95570.88;;;20.10;51.25
56330;BME280;42236;48.058;10.632;2023-10-08T14:34:45;95566.94;;;20.07;51.10
56330;BME280;42236;48.058;10.632;2023-10-08T14:37:40;95569.69;;;20.07;50.78
56330;BME280;42236;48.058;10.632;2023-10-08T14:40:45;95579.47;;;20.08;51.02
56330;BME280;42236;48.058;10.632;2023-10-08T14:43:50;95580.28;;;20.09;50.47
56330;BME280;42236;48.058;10.632;2023-10-08T14:46:37;95579.50;;;20.12;50.80